Time;durP1;ratioP1;P1;durP2;ratioP2;P2;SDS_P1;SDS_P2;PMS_P1;PMS_P2;Temp;Humidity;BMP_temperature;BMP_pressure;BME280_temperature;BME280_humidity;BME280_pressure;Samples;Min_cycle;Max_cycle;Signal;HPM_P1;HPM_P2
2021/07/24 00:01:35;;;;;;;6.20;4.80;;;15.40;99.90;;;;;;5061287;28;20239;-61
2021/07/24 00:04:05;;;;;;;5.33;3.90;;;15.40;99.90;;;;;;5067856;28;20234;-61
2021/07/24 00:06:45;;;;;;;4.77;4.17;;;15.50;99.90;;;;;;5067638;28;20239;-61
2021/07/24 00:09:15;;;;;;;4.53;4.13;;;15.40;99.90;;;;;;5067652;28;20247;-61
2021/07/24 00:11:43;;;;;;;4.23;3.83;;;15.40;99.90;;;;;;5051202;28;20247;-60
2021/07/24 00:14:11;;;;;;;3.73;3.43;;;15.40;99.90;;;;;;5048270;28;20270;-60
2021/07/24 00:16:39;;;;;;;3.33;2.97;;;15.40;99.90;;;;;;5048765;28;20235;-60
2021/07/24 00:19:07;;;;;;;3.77;3.47;;;15.30;99.90;;;;;;5045952;28;20232;-62
2021/07/24 00:21:35;;;;;;;4.70;3.50;;;15.30;99.90;;;;;;5045257;28;20263;-60
2021/07/24 00:24:04;;;;;;;4.80;4.27;;;15.30;99.90;;;;;;5046482;28;20263;-60
2021/07/24 00:26:33;;;;;;;5.60;4.97;;;15.30;99.90;;;;;;5060195;28;20241;-60
2021/07/24 00:29:05;;;;;;;5.33;4.83;;;15.30;99.90;;;;;;5066247;28;20277;-61
2021/07/24 00:31:34;;;;;;;5.23;4.73;;;15.30;99.90;;;;;;5050963;28;20639;-60
2021/07/24 00:34:03;;;;;;;5.43;4.60;;;15.20;99.90;;;;;;5046316;28;20243;-60
2021/07/24 00:36:31;;;;;;;4.83;4.33;;;15.20;99.90;;;;;;5058276;28;20316;-59
2021/07/24 00:39:02;;;;;;;5.70;5.10;;;15.20;99.90;;;;;;5065736;28;20231;-60
2021/07/24 00:41:37;;;;;;;4.83;4.33;;;15.10;99.90;;;;;;5051256;28;20730;-61
2021/07/24 00:44:07;;;;;;;5.07;4.57;;;15.10;99.90;;;;;;5046007;28;20231;-60
2021/07/24 00:46:38;;;;;;;4.47;4.07;;;15.10;99.90;;;;;;5057893;28;20597;-60
2021/07/24 00:49:09;;;;;;;4.63;3.67;;;15.00;99.90;;;;;;5045843;28;20715;-60
2021/07/24 00:51:51;;;;;;;5.13;3.83;;;15.10;99.90;;;;;;5060152;28;20235;-60
2021/07/24 00:54:21;;;;;;;4.73;3.83;;;15.00;99.90;;;;;;5066077;28;20237;-60
2021/07/24 00:56:52;;;;;;;4.97;4.03;;;15.00;99.90;;;;;;5049337;28;20240;-60
2021/07/24 00:59:20;;;;;;;4.83;4.43;;;14.90;99.90;;;;;;5045369;28;20235;-60
2021/07/24 01:01:48;;;;;;;4.07;3.67;;;14.80;99.90;;;;;;5058084;28;20292;-60
2021/07/24 01:04:17;;;;;;;5.67;4.77;;;14.80;99.90;;;;;;5064902;28;20234;-60
2021/07/24 01:06:49;;;;;;;4.77;4.33;;;14.80;99.90;;;;;;5050069;28;20253;-61
2021/07/24 01:09:18;;;;;;;4.20;3.80;;;14.90;99.90;;;;;;5046037;28;20297;-60
2021/07/24 01:11:48;;;;;;;4.43;4.03;;;14.80;99.90;;;;;;5059889;28;20324;-61
2021/07/24 01:14:17;;;;;;;4.03;3.37;;;14.80;99.90;;;;;;5046316;28;20224;-60
2021/07/24 01:16:46;;;;;;;5.30;3.90;;;14.80;99.90;;;;;;5044022;28;20711;-61
2021/07/24 01:19:21;;;;;;;4.03;3.60;;;14.80;99.90;;;;;;5044911;28;20318;-60
2021/07/24 01:21:52;;;;;;;4.73;3.90;;;14.80;99.90;;;;;;5061052;28;20321;-61
2021/07/24 01:24:20;;;;;;;4.57;4.07;;;14.70;99.90;;;;;;5046079;28;20240;-61
2021/07/24 01:26:48;;;;;;;4.50;4.10;;;14.70;99.90;;;;;;5043982;28;20240;-60
2021/07/24 01:29:21;;;;;;;5.20;4.33;;;14.70;99.90;;;;;;5041876;28;20631;-60
2021/07/24 01:31:54;;;;;;;4.77;4.27;;;14.70;99.90;;;;;;5044720;28;20314;-60
2021/07/24 01:34:24;;;;;;;4.23;3.80;;;14.70;99.90;;;;;;5040941;28;20287;-60
2021/07/24 01:36:54;;;;;;;5.83;4.27;;;14.70;99.90;;;;;;5025668;28;20319;-60
2021/07/24 01:39:23;;;;;;;5.90;4.93;;;14.70;99.90;;;;;;5025389;28;20727;-60
2021/07/24 01:41:54;;;;;;;6.40;4.97;;;14.60;99.90;;;;;;5027802;28;20232;-60
2021/07/24 01:44:23;;;;;;;5.40;4.50;;;14.50;99.90;;;;;;5040057;28;20246;-60
2021/07/24 01:46:52;;;;;;;5.03;4.53;;;14.50;99.90;;;;;;5062004;28;20235;-60
2021/07/24 01:55:12;;;;;;;12.73;5.27;;;14.50;99.90;;;;;;5065171;28;20239;-59
2021/07/24 01:57:52;;;;;;;6.50;5.47;;;14.60;99.90;;;;;;5063861;28;20606;-59
2021/07/24 02:00:23;;;;;;;8.83;5.43;;;14.50;99.90;;;;;;5064497;28;20472;-60
2021/07/24 02:03:20;;;;;;;9.57;7.07;;;14.40;99.90;;;;;;5046584;28;20243;-60
2021/07/24 02:06:17;;;;;;;11.30;9.10;;;14.30;99.90;;;;;;5055033;28;20652;-60
2021/07/24 02:09:08;;;;;;;12.93;8.20;;;14.30;99.90;;;;;;5065099;28;20296;-61
2021/07/24 02:11:38;;;;;;;8.93;7.77;;;14.20;99.90;;;;;;5056738;28;20270;-60
2021/07/24 02:14:07;;;;;;;9.07;8.10;;;14.30;99.90;;;;;;5047466;28;20285;-60
2021/07/24 02:16:38;;;;;;;10.93;8.60;;;14.20;99.90;;;;;;5048042;28;20286;-59
2021/07/24 02:19:10;;;;;;;9.83;8.57;;;14.20;99.90;;;;;;5048364;28;20232;-60
2021/07/24 02:21:44;;;;;;;9.80;8.37;;;14.10;99.90;;;;;;5047316;28;20232;-60
2021/07/24 02:24:16;;;;;;;12.77;9.13;;;14.10;99.90;;;;;;5048786;28;20317;-61
2021/07/24 02:26:45;;;;;;;11.50;9.60;;;14.20;99.90;;;;;;5048261;28;20325;-61
2021/07/24 02:29:13;;;;;;;13.97;9.00;;;14.20;99.90;;;;;;5049796;28;20242;-60
2021/07/24 02:31:42;;;;;;;9.70;8.07;;;14.30;99.90;;;;;;5047210;28;20690;-61
2021/07/24 02:34:15;;;;;;;9.00;8.10;;;14.30;99.90;;;;;;5048618;28;20236;-61
2021/07/24 02:36:43;;;;;;;9.03;8.10;;;14.40;99.90;;;;;;5063385;28;20606;-60
2021/07/24 02:39:12;;;;;;;9.00;8.00;;;14.40;99.90;;;;;;5061538;28;20592;-60
2021/07/24 02:41:42;;;;;;;10.00;8.93;;;14.40;99.90;;;;;;5062268;28;20239;-60
2021/07/24 02:44:11;;;;;;;8.73;7.80;;;14.40;99.90;;;;;;5068332;28;20325;-59
2021/07/24 02:46:39;;;;;;;11.17;8.40;;;14.40;99.90;;;;;;5067763;28;20292;-59
2021/07/24 02:49:11;;;;;;;11.47;8.37;;;14.40;99.90;;;;;;5067689;28;20243;-60
2021/07/24 02:51:43;;;;;;;10.23;7.43;;;14.40;99.90;;;;;;5066903;28;20601;-61
2021/07/24 02:54:14;;;;;;;9.63;8.63;;;14.40;99.90;;;;;;5068269;28;20246;-60
2021/07/24 02:56:49;;;;;;;10.97;9.43;;;14.30;99.90;;;;;;5067497;28;20235;-60
2021/07/24 02:59:18;;;;;;;9.97;8.43;;;14.30;99.90;;;;;;5068916;28;20731;-60
2021/07/24 03:01:47;;;;;;;11.43;8.80;;;14.30;99.90;;;;;;5052462;28;20311;-60
2021/07/24 03:04:15;;;;;;;10.57;9.10;;;14.30;99.90;;;;;;5049823;28;20627;-60
2021/07/24 03:06:43;;;;;;;10.73;9.13;;;14.20;99.90;;;;;;5048776;28;20615;-61
2021/07/24 03:09:12;;;;;;;13.17;10.50;;;14.10;99.90;;;;;;5047061;28;20635;-61
2021/07/24 03:11:40;;;;;;;13.23;10.40;;;14.10;99.90;;;;;;5063172;28;20549;-59
2021/07/24 03:14:09;;;;;;;14.30;11.83;;;14.10;99.90;;;;;;5068887;28;20782;-60
2021/07/24 03:16:37;;;;;;;14.43;11.40;;;14.00;99.90;;;;;;5068710;28;20322;-61
2021/07/24 03:19:06;;;;;;;14.30;11.37;;;14.00;99.90;;;;;;5068603;28;20242;-60
2021/07/24 03:21:34;;;;;;;14.97;11.80;;;14.00;99.90;;;;;;5053669;28;20236;-60
2021/07/24 03:24:02;;;;;;;15.23;12.13;;;14.00;99.90;;;;;;5049410;28;20256;-60
2021/07/24 03:26:30;;;;;;;15.13;11.83;;;14.00;99.90;;;;;;5048237;28;20247;-60
2021/07/24 03:28:58;;;;;;;14.07;10.30;;;14.10;99.90;;;;;;5048666;28;20255;-59
2021/07/24 03:31:27;;;;;;;14.97;11.90;;;14.20;99.90;;;;;;5061081;28;20296;-60
2021/07/24 03:33:55;;;;;;;16.00;11.83;;;14.10;99.90;;;;;;5068838;28;20231;-60
2021/07/24 03:36:23;;;;;;;13.47;12.07;;;14.00;99.90;;;;;;5055774;28;20240;-59
2021/07/24 03:38:52;;;;;;;14.70;11.60;;;14.00;99.90;;;;;;5047853;28;20246;-60
2021/07/24 03:41:20;;;;;;;14.87;12.00;;;14.00;99.90;;;;;;5047247;28;20687;-59
2021/07/24 03:43:48;;;;;;;16.57;12.07;;;14.00;99.90;;;;;;5047409;28;20242;-61
2021/07/24 03:46:17;;;;;;;17.77;11.23;;;14.00;99.90;;;;;;5047294;28;20234;-61
2021/07/24 03:48:46;;;;;;;12.67;10.67;;;14.00;99.90;;;;;;5046867;28;20650;-61
2021/07/24 03:51:15;;;;;;;13.40;11.03;;;14.10;99.90;;;;;;5057974;28;20289;-61
2021/07/24 03:53:43;;;;;;;11.97;10.07;;;14.10;99.90;;;;;;5065321;28;20235;-60
2021/07/24 03:56:16;;;;;;;12.10;10.07;;;14.10;99.90;;;;;;5055811;28;20236;-60
2021/07/24 03:58:44;;;;;;;10.80;9.17;;;14.20;99.90;;;;;;5046522;28;20711;-60
2021/07/24 04:01:13;;;;;;;12.10;10.80;;;14.40;99.90;;;;;;5057029;28;20321;-61
2021/07/24 04:03:41;;;;;;;13.20;10.63;;;14.40;99.90;;;;;;5066693;28;20238;-59
2021/07/24 04:06:17;;;;;;;10.07;9.07;;;14.40;99.90;;;;;;5055542;28;20263;-60
2021/07/24 04:08:45;;;;;;;12.40;10.30;;;14.50;99.90;;;;;;5046765;28;20243;-61
2021/07/24 04:11:14;;;;;;;12.97;9.73;;;14.60;99.90;;;;;;5050014;28;20236;-60
2021/07/24 04:13:42;;;;;;;10.80;9.40;;;14.60;99.90;;;;;;5026902;28;20233;-59
2021/07/24 04:16:10;;;;;;;12.50;10.23;;;14.70;99.90;;;;;;5037537;28;20239;-60
2021/07/24 04:18:39;;;;;;;11.17;9.50;;;14.70;99.90;;;;;;5045965;28;20269;-60
2021/07/24 04:21:07;;;;;;;13.83;9.90;;;14.70;99.90;;;;;;5044113;28;20297;-60
2021/07/24 04:23:36;;;;;;;12.53;9.17;;;14.70;99.90;;;;;;5045023;28;20242;-60
2021/07/24 04:26:05;;;;;;;9.97;8.57;;;14.70;99.90;;;;;;5046350;28;20250;-60
2021/07/24 04:28:33;;;;;;;9.63;8.07;;;14.80;99.90;;;;;;5046288;28;20231;-60
2021/07/24 04:31:04;;;;;;;10.80;9.00;;;14.90;99.90;;;;;;5045002;28;20243;-59
2021/07/24 04:33:32;;;;;;;12.97;10.37;;;15.00;99.90;;;;;;5046098;28;20576;-60
2021/07/24 04:36:00;;;;;;;10.43;8.53;;;15.10;99.90;;;;;;5036977;28;20247;-60
2021/07/24 04:38:28;;;;;;;9.70;8.70;;;15.10;99.90;;;;;;5025353;28;20302;-60
2021/07/24 04:40:58;;;;;;;10.27;9.23;;;15.20;99.90;;;;;;5025660;28;20255;-61
2021/07/24 04:43:26;;;;;;;12.97;9.67;;;15.10;99.90;;;;;;5026286;28;20290;-60
2021/07/24 04:45:54;;;;;;;11.83;10.57;;;15.10;99.90;;;;;;5034897;28;20238;-59
2021/07/24 04:48:22;;;;;;;11.93;10.33;;;15.10;99.90;;;;;;5046116;28;20703;-60
2021/07/24 04:50:55;;;;;;;11.33;10.13;;;15.10;99.90;;;;;;5037148;28;20240;-61
2021/07/24 04:53:24;;;;;;;10.87;9.77;;;15.10;99.90;;;;;;5026509;28;20638;-61
2021/07/24 04:55:53;;;;;;;11.03;9.90;;;15.10;99.90;;;;;;5026700;28;20235;-60
2021/07/24 04:58:25;;;;;;;11.07;9.93;;;15.20;99.90;;;;;;5025866;28;20244;-59
2021/07/24 05:00:56;;;;;;;11.13;9.90;;;15.20;99.90;;;;;;5023548;28;20260;-60
2021/07/24 05:03:24;;;;;;;12.47;10.10;;;15.30;99.90;;;;;;5026115;28;20247;-60
2021/07/24 05:05:53;;;;;;;11.83;9.33;;;15.40;99.90;;;;;;5017698;28;20237;-60
2021/07/24 05:08:22;;;;;;;13.03;9.43;;;15.40;99.90;;;;;;5019245;28;20586;-60
2021/07/24 05:10:50;;;;;;;10.93;9.30;;;15.50;99.90;;;;;;5033449;28;20233;-60
2021/07/24 05:13:18;;;;;;;12.17;10.73;;;15.70;99.90;;;;;;5046210;28;20314;-60
2021/07/24 05:15:48;;;;;;;10.43;9.33;;;15.70;99.90;;;;;;5065393;28;20234;-60
2021/07/24 05:18:16;;;;;;;11.20;9.47;;;15.80;99.90;;;;;;5066016;28;20683;-60
2021/07/24 05:20:44;;;;;;;12.97;11.27;;;15.90;99.90;;;;;;5054337;28;20735;-60
2021/07/24 05:23:14;;;;;;;13.93;10.90;;;15.90;99.90;;;;;;5045649;28;20421;-60
2021/07/24 05:25:42;;;;;;;11.13;9.27;;;16.10;99.90;;;;;;5033615;28;20248;-61
2021/07/24 05:28:11;;;;;;;13.17;10.70;;;16.20;99.90;;;;;;5032460;28;20494;-60
2021/07/24 05:30:40;;;;;;;10.90;9.63;;;16.20;99.90;;;;;;5038548;28;20322;-61
2021/07/24 05:33:09;;;;;;;13.27;9.70;;;16.30;99.90;;;;;;5052053;28;20278;-59
2021/07/24 05:35:37;;;;;;;13.20;10.30;;;16.40;99.90;;;;;;5036422;28;20747;-60
2021/07/24 05:38:05;;;;;;;11.93;10.07;;;16.60;99.90;;;;;;5031847;28;20236;-60
2021/07/24 05:40:33;;;;;;;11.97;9.47;;;16.80;99.90;;;;;;5034582;28;20310;-60
2021/07/24 05:43:02;;;;;;;9.90;8.90;;;17.00;99.90;;;;;;5037100;28;20752;-61
2021/07/24 05:45:30;;;;;;;11.07;9.73;;;17.30;99.90;;;;;;5046153;28;20233;-62
2021/07/24 05:47:58;;;;;;;11.13;9.93;;;17.40;99.90;;;;;;5048436;28;20236;-61
2021/07/24 05:50:27;;;;;;;11.13;8.80;;;17.60;99.90;;;;;;5047804;28;20944;-60
2021/07/24 05:52:55;;;;;;;11.03;8.50;;;17.70;99.90;;;;;;5048741;28;20259;-60
2021/07/24 05:55:24;;;;;;;12.13;8.97;;;17.90;99.90;;;;;;5048679;28;20279;-60
2021/07/24 05:57:52;;;;;;;10.43;8.00;;;18.10;99.90;;;;;;5048876;28;20424;-62
2021/07/24 06:00:20;;;;;;;11.30;9.47;;;18.20;99.90;;;;;;5045631;28;20703;-60
2021/07/24 06:02:48;;;;;;;10.67;8.87;;;18.30;99.90;;;;;;5028648;28;20237;-59
2021/07/24 06:05:17;;;;;;;12.07;8.43;;;18.40;99.90;;;;;;5032688;28;20245;-61
2021/07/24 06:07:46;;;;;;;10.40;8.90;;;18.70;99.90;;;;;;5048656;28;21670;-61
2021/07/24 06:10:14;;;;;;;8.77;7.87;;;18.90;99.90;;;;;;5048671;28;20296;-61
2021/07/24 06:12:46;;;;;;;8.83;7.90;;;19.10;99.90;;;;;;5047293;28;20236;-61
2021/07/24 06:15:14;;;;;;;9.57;8.57;;;19.20;99.90;;;;;;5047348;28;20291;-61
2021/07/24 06:17:43;;;;;;;9.57;8.40;;;19.30;99.90;;;;;;5047376;28;20713;-61
2021/07/24 06:20:11;;;;;;;9.50;8.10;;;19.40;99.90;;;;;;5046109;28;20265;-60
2021/07/24 06:22:39;;;;;;;11.80;8.57;;;19.40;99.90;;;;;;5046802;28;20339;-59
2021/07/24 06:25:11;;;;;;;9.00;7.77;;;19.60;99.90;;;;;;5047076;28;20755;-60
2021/07/24 06:27:39;;;;;;;11.00;8.57;;;19.60;99.90;;;;;;5046514;28;20299;-60
2021/07/24 06:30:09;;;;;;;8.80;7.83;;;19.70;99.90;;;;;;5046837;28;20235;-60
2021/07/24 06:32:37;;;;;;;10.70;7.37;;;19.80;99.90;;;;;;5046913;28;20263;-61
2021/07/24 06:35:06;;;;;;;10.93;7.73;;;20.10;99.90;;;;;;5046107;28;20261;-61
2021/07/24 06:37:34;;;;;;;9.53;7.57;;;20.20;99.90;;;;;;5046701;28;20252;-60
2021/07/24 06:40:03;;;;;;;10.03;8.27;;;20.30;99.90;;;;;;5045681;28;20243;-61
2021/07/24 06:42:32;;;;;;;9.67;7.97;;;20.40;99.90;;;;;;5045509;28;20238;-61
2021/07/24 06:45:00;;;;;;;10.33;7.57;;;20.50;99.90;;;;;;5046728;28;20242;-61
2021/07/24 06:47:28;;;;;;;8.90;7.93;;;20.80;99.90;;;;;;5046338;28;20270;-60
2021/07/24 06:49:56;;;;;;;11.30;8.27;;;20.90;99.90;;;;;;5042126;28;20259;-60
2021/07/24 06:52:24;;;;;;;8.57;7.00;;;20.80;99.90;;;;;;5045675;28;20235;-60
2021/07/24 06:54:52;;;;;;;9.20;7.30;;;21.00;99.90;;;;;;5045524;28;20267;-61
2021/07/24 06:57:20;;;;;;;11.07;7.73;;;21.10;99.90;;;;;;5046364;28;20293;-61
2021/07/24 06:59:54;;;;;;;8.40;6.97;;;21.20;99.90;;;;;;5045266;28;20247;-61
2021/07/24 07:02:22;;;;;;;8.80;7.70;;;21.50;99.90;;;;;;5026038;28;20568;-61
2021/07/24 07:04:50;;;;;;;10.63;7.27;;;21.30;99.90;;;;;;5026869;28;20787;-61
2021/07/24 07:07:20;;;;;;;10.10;7.20;;;21.30;99.90;;;;;;5045903;28;20289;-61
2021/07/24 07:09:48;;;;;;;9.57;7.27;;;21.60;99.90;;;;;;5027118;28;20243;-60
2021/07/24 07:12:17;;;;;;;10.00;7.40;;;21.70;99.90;;;;;;5046014;28;20247;-61
2021/07/24 07:14:45;;;;;;;8.50;7.40;;;21.80;99.90;;;;;;5043568;28;20748;-61
2021/07/24 07:17:15;;;;;;;9.60;7.37;;;22.00;99.90;;;;;;5045927;28;20243;-60
2021/07/24 07:19:44;;;;;;;10.00;6.80;;;22.00;99.90;;;;;;5042798;28;20246;-62
2021/07/24 07:22:12;;;;;;;8.87;6.43;;;22.30;99.90;;;;;;5055999;28;20248;-61
2021/07/24 07:24:40;;;;;;;10.20;7.10;;;22.40;99.90;;;;;;5045785;28;20250;-60
2021/07/24 07:27:08;;;;;;;10.73;7.00;;;22.30;99.90;;;;;;5045097;28;20242;-61
2021/07/24 07:29:36;;;;;;;11.60;6.83;;;22.20;99.90;;;;;;5045506;28;20232;-60
2021/07/24 07:32:05;;;;;;;8.63;6.33;;;22.50;99.90;;;;;;5044070;28;20274;-60
2021/07/24 07:34:34;;;;;;;8.43;6.73;;;22.90;99.90;;;;;;5045186;28;20293;-61
2021/07/24 07:37:02;;;;;;;9.63;6.10;;;23.30;99.90;;;;;;5045475;28;20231;-61
2021/07/24 07:39:31;;;;;;;9.90;6.27;;;23.40;99.90;;;;;;5040693;28;20248;-61
2021/07/24 07:41:59;;;;;;;8.87;6.57;;;23.30;99.90;;;;;;5044706;28;20579;-61
2021/07/24 07:44:28;;;;;;;8.23;5.90;;;23.40;99.90;;;;;;5043948;28;20816;-60
2021/07/24 07:46:56;;;;;;;7.23;5.83;;;23.40;99.90;;;;;;5041887;28;20238;-62
2021/07/24 07:49:24;;;;;;;6.37;5.13;;;23.50;99.90;;;;;;5045093;28;20248;-62
2021/07/24 07:51:57;;;;;;;7.23;5.93;;;23.70;99.90;;;;;;5044665;28;20235;-61
2021/07/24 07:54:25;;;;;;;7.33;6.07;;;23.60;99.90;;;;;;5045359;28;20675;-61
2021/07/24 07:56:53;;;;;;;9.20;6.57;;;23.70;99.90;;;;;;5044983;28;20251;-61
2021/07/24 07:59:21;;;;;;;7.57;6.07;;;23.90;99.90;;;;;;5043572;28;20244;-61
2021/07/24 08:01:49;;;;;;;10.37;6.33;;;23.80;99.90;;;;;;5038803;28;20739;-62
2021/07/24 08:04:18;;;;;;;13.10;6.13;;;23.60;99.90;;;;;;5039356;28;20318;-62
2021/07/24 08:06:48;;;;;;;8.47;5.73;;;23.60;99.90;;;;;;5034993;28;20857;-62
2021/07/24 08:09:17;;;;;;;7.57;5.77;;;23.50;99.90;;;;;;5033915;28;20240;-62
2021/07/24 08:11:45;;;;;;;9.47;6.33;;;23.80;99.90;;;;;;5031326;28;20240;-60
2021/07/24 08:14:14;;;;;;;8.73;5.67;;;24.00;99.90;;;;;;5033666;28;20244;-61
2021/07/24 08:16:44;;;;;;;8.70;5.40;;;24.40;99.90;;;;;;5033718;28;20245;-61
2021/07/24 08:19:17;;;;;;;5.68;4.80;;;24.60;99.90;;;;;;4758632;28;10001379;-62
2021/07/24 08:21:45;;;;;;;7.73;4.83;;;24.20;99.90;;;;;;1383869;28;10001793;-61
2021/07/24 08:24:13;;;;;;;7.93;4.80;;;24.10;99.90;;;;;;5021809;28;20479;-62
2021/07/24 08:26:43;;;;;;;7.70;5.30;;;24.00;99.90;;;;;;5023201;28;21176;-61
2021/07/24 08:29:11;;;;;;;7.97;4.60;;;24.10;99.90;;;;;;5021189;28;20319;-61
2021/07/24 08:31:39;;;;;;;5.93;4.80;;;24.40;99.90;;;;;;5020451;28;20342;-61
2021/07/24 08:34:07;;;;;;;10.70;5.30;;;24.80;99.90;;;;;;5019743;28;20233;-61
2021/07/24 08:36:36;;;;;;;6.57;4.67;;;24.80;99.90;;;;;;5021272;28;20811;-62
2021/07/24 08:39:04;;;;;;;5.17;4.47;;;24.80;99.90;;;;;;5021744;28;20244;-62
2021/07/24 08:41:32;;;;;;;5.90;4.47;;;24.90;99.90;;;;;;5026187;28;20244;-62
2021/07/24 08:44:01;;;;;;;7.00;4.40;;;25.00;99.90;;;;;;5025654;28;20469;-61
2021/07/24 08:46:29;;;;;;;5.70;4.60;;;24.80;99.90;;;;;;5025765;28;20247;-64
2021/07/24 08:48:59;;;;;;;6.73;4.43;;;24.90;99.90;;;;;;5025392;28;20342;-62
2021/07/24 08:51:30;;;;;;;5.13;4.00;;;25.30;99.90;;;;;;5031812;28;20233;-62
2021/07/24 08:54:02;;;;;;;4.70;4.27;;;25.00;99.90;;;;;;5026049;28;20246;-62
2021/07/24 08:56:35;;;;;;;5.53;4.07;;;24.80;99.90;;;;;;5025368;28;20240;-60
2021/07/24 08:59:06;;;;;;;6.78;4.20;;;25.10;99.90;;;;;;5024469;28;20516;-62
2021/07/24 09:01:36;;;;;;;7.07;4.27;;;25.20;99.90;;;;;;5027928;28;20697;-64
2021/07/24 09:04:06;;;;;;;6.70;4.27;;;25.20;99.90;;;;;;5022280;28;20247;-63
2021/07/24 09:06:34;;;;;;;7.47;4.40;;;25.40;99.90;;;;;;5036539;28;20618;-64
2021/07/24 09:09:04;;;;;;;4.37;3.60;;;25.40;99.90;;;;;;5024549;28;20249;-63
2021/07/24 09:11:32;;;;;;;5.90;4.60;;;25.20;99.90;;;;;;5027139;28;20235;-63
2021/07/24 09:14:01;;;;;;;5.87;4.13;;;25.20;99.90;;;;;;5026185;28;20321;-63
2021/07/24 09:16:33;;;;;;;4.43;4.00;;;25.30;99.90;;;;;;5024240;28;20241;-63
2021/07/24 09:19:01;;;;;;;7.40;4.50;;;25.60;99.90;;;;;;5027984;28;20239;-63
2021/07/24 09:21:31;;;;;;;5.60;4.73;;;25.30;99.90;;;;;;5026227;28;20241;-63
2021/07/24 09:24:17;;;;;;;7.10;4.40;;;25.40;99.90;;;;;;5028728;28;20261;-64
2021/07/24 09:26:45;;;;;;;6.50;4.20;;;25.80;99.90;;;;;;5017329;28;20329;-63
2021/07/24 09:29:15;;;;;;;6.53;3.90;;;26.20;99.90;;;;;;5029037;28;20230;-63
2021/07/24 09:31:45;;;;;;;5.20;4.07;;;26.60;99.90;;;;;;5028005;28;20490;-64
2021/07/24 09:34:15;;;;;;;9.20;5.20;;;26.60;99.90;;;;;;5029738;28;20607;-64
2021/07/24 09:36:45;;;;;;;5.07;4.07;;;26.50;99.90;;;;;;5028713;28;20250;-63
2021/07/24 09:39:14;;;;;;;6.40;4.47;;;26.60;99.90;;;;;;5028252;28;20610;-64
2021/07/24 09:41:44;;;;;;;5.90;4.10;;;26.50;99.90;;;;;;5024442;28;20440;-65
2021/07/24 09:44:13;;;;;;;5.87;4.60;;;26.90;99.90;;;;;;5028869;28;20238;-67
2021/07/24 09:46:54;;;;;;;14.17;4.90;;;26.90;99.90;;;;;;5027702;28;20322;-69
2021/07/24 09:49:34;;;;;;;12.33;4.57;;;27.30;99.90;;;;;;5042069;28;20254;-70
2021/07/24 09:52:11;;;;;;;9.80;4.33;;;27.50;99.90;;;;;;5065949;28;20524;-70
2021/07/24 09:54:39;;;;;;;5.03;4.00;;;27.10;99.90;;;;;;5069287;28;20272;-70
2021/07/24 09:57:08;;;;;;;5.63;4.60;;;27.20;99.90;;;;;;5068817;28;20331;-70
2021/07/24 09:59:37;;;;;;;6.27;4.50;;;27.30;99.90;;;;;;5055731;28;20248;-68
2021/07/24 10:02:06;;;;;;;5.03;3.83;;;27.20;99.90;;;;;;5047311;28;20281;-68
2021/07/24 10:04:37;;;;;;;6.97;4.40;;;27.40;99.90;;;;;;5048311;28;20733;-68
2021/07/24 10:07:28;;;;;;;7.97;4.23;;;28.00;99.90;;;;;;5028238;28;20236;-69
2021/07/24 10:09:58;;;;;;;9.43;4.70;;;27.90;99.90;;;;;;5029046;28;20239;-69
2021/07/24 10:12:26;;;;;;;8.07;4.20;;;27.40;99.90;;;;;;5048065;28;20683;-68
2021/07/24 10:14:54;;;;;;;7.47;4.60;;;27.40;99.90;;;;;;5048469;28;20234;-68
2021/07/24 10:17:23;;;;;;;8.70;4.70;;;27.60;99.90;;;;;;5048843;28;20239;-69
2021/07/24 10:19:52;;;;;;;6.33;4.50;;;27.60;99.90;;;;;;5050072;28;20270;-68
2021/07/24 10:22:22;;;;;;;5.53;4.27;;;27.80;99.90;;;;;;5028043;28;20258;-68
2021/07/24 10:24:52;;;;;;;6.27;4.30;;;27.60;99.90;;;;;;5028845;28;20238;-68
2021/07/24 10:27:27;;;;;;;7.33;4.50;;;27.70;99.90;;;;;;5029376;28;20594;-69
2021/07/24 10:30:00;;;;;;;6.37;4.33;;;27.80;99.90;;;;;;5047479;28;20238;-69
2021/07/24 10:32:31;;;;;;;4.17;3.80;;;27.90;99.90;;;;;;5067638;28;20231;-69
2021/07/24 10:35:02;;;;;;;5.90;4.20;;;28.20;99.90;;;;;;5068277;28;20241;-68
2021/07/24 10:37:35;;;;;;;6.17;4.00;;;28.50;99.90;;;;;;5056396;28;20239;-69
2021/07/24 10:40:35;;;;;;;6.50;3.93;;;28.70;99.90;;;;;;5046516;28;20773;-70
2021/07/24 10:43:06;;;;;;;5.97;3.93;;;29.10;99.90;;;;;;5046601;28;20240;-69
2021/07/24 10:45:55;;;;;;;4.30;3.80;;;29.40;99.90;;;;;;5053810;28;20249;-69
2021/07/24 10:48:26;;;;;;;5.93;3.80;;;28.90;99.90;;;;;;5062230;28;20778;-69
2021/07/24 10:51:15;;;;;;;5.50;3.77;;;28.10;99.90;;;;;;5055293;28;20249;-72
2021/07/24 10:54:06;;;;;;;5.90;4.03;;;29.00;99.90;;;;;;5067548;28;20326;-72
2021/07/24 10:56:38;;;;;;;7.70;4.27;;;28.90;99.90;;;;;;5067197;28;20307;-71
2021/07/24 10:59:21;;;;;;;6.13;3.80;;;28.90;99.90;;;;;;5067324;28;20639;-72
2021/07/24 11:01:51;;;;;;;5.40;4.23;;;29.40;99.90;;;;;;5050756;28;20249;-72
2021/07/24 11:04:43;;;;;;;6.33;4.50;;;29.90;99.90;;;;;;5047255;28;20657;-72
2021/07/24 11:07:43;;;;;;;7.30;4.20;;;29.80;99.90;;;;;;5044515;28;20236;-71
2021/07/24 11:10:11;;;;;;;6.63;3.60;;;29.30;99.90;;;;;;5049566;28;20284;-72
2021/07/24 11:12:40;;;;;;;4.53;3.93;;;29.50;99.90;;;;;;5057725;28;20223;-72
2021/07/24 11:15:11;;;;;;;5.63;3.87;;;29.60;99.90;;;;;;5049142;28;20236;-70
2021/07/24 11:17:39;;;;;;;4.20;3.80;;;29.70;99.90;;;;;;5066986;28;20639;-70
2021/07/24 11:20:34;;;;;;;4.93;4.13;;;29.80;99.90;;;;;;5064761;28;20231;-70
2021/07/24 11:23:10;;;;;;;5.67;4.33;;;29.50;99.90;;;;;;5047149;28;20235;-70
2021/07/24 11:25:40;;;;;;;7.00;4.23;;;29.80;99.90;;;;;;5046904;28;20251;-70
2021/07/24 11:28:10;;;;;;;4.93;4.30;;;29.40;99.90;;;;;;5046754;28;20775;-70
2021/07/24 11:30:38;;;;;;;5.13;3.93;;;29.90;99.90;;;;;;5052977;28;20240;-70
2021/07/24 11:33:12;;;;;;;5.60;4.10;;;29.80;99.90;;;;;;5067439;28;20240;-70
2021/07/24 11:35:41;;;;;;;5.33;3.83;;;29.70;99.90;;;;;;5055776;28;20293;-70
2021/07/24 11:38:25;;;;;;;5.47;4.17;;;30.10;99.90;;;;;;5046727;28;20271;-70
2021/07/24 11:41:07;;;;;;;7.90;4.00;;;30.60;99.90;;;;;;5044980;28;20227;-70
2021/07/24 11:43:37;;;;;;;4.90;4.10;;;30.80;99.90;;;;;;5046789;28;20562;-70
2021/07/24 11:46:13;;;;;;;5.23;4.13;;;30.20;99.90;;;;;;5046892;28;20237;-70
2021/07/24 11:48:42;;;;;;;8.23;4.00;;;30.10;99.90;;;;;;5046315;28;20639;-70
2021/07/24 11:51:13;;;;;;;6.70;4.87;;;30.70;99.90;;;;;;5045345;28;20234;-70
2021/07/24 11:53:42;;;;;;;5.60;4.13;;;30.80;99.80;;;;;;5045793;28;20725;-70
2021/07/24 11:56:19;;;;;;;6.53;3.93;;;30.90;99.90;;;;;;5060899;28;20232;-71
2021/07/24 11:58:53;;;;;;;6.60;4.13;;;30.90;99.90;;;;;;5064741;28;20227;-71
2021/07/24 12:01:22;;;;;;;5.60;4.30;;;29.90;99.90;;;;;;5033754;28;20848;-71
2021/07/24 12:04:04;;;;;;;4.60;4.20;;;29.70;99.90;;;;;;5037294;28;20254;-71
2021/07/24 12:06:35;;;;;;;5.67;4.33;;;29.30;99.90;;;;;;5048418;28;21367;-71
2021/07/24 12:09:05;;;;;;;5.40;4.50;;;29.00;99.90;;;;;;5031777;28;20647;-70
2021/07/24 12:11:36;;;;;;;8.07;4.90;;;29.00;99.90;;;;;;5040085;28;20235;-70
2021/07/24 12:14:05;;;;;;;5.07;4.57;;;28.80;99.90;;;;;;5035165;28;20239;-71
2021/07/24 12:16:38;;;;;;;8.90;5.10;;;28.60;99.90;;;;;;5045293;28;20246;-70
2021/07/24 12:19:17;;;;;;;5.77;4.93;;;28.40;99.90;;;;;;5031700;28;20240;-70
2021/07/24 12:21:46;;;;;;;5.53;4.33;;;28.30;99.90;;;;;;5042184;28;20289;-70
2021/07/24 12:24:26;;;;;;;5.70;4.40;;;28.30;99.90;;;;;;5007914;28;20351;-71
2021/07/24 12:27:07;;;;;;;6.00;4.17;;;28.50;99.90;;;;;;5012290;28;20362;-71
2021/07/24 12:29:51;;;;;;;7.47;4.70;;;28.60;99.90;;;;;;5011171;28;20347;-70
2021/07/24 12:32:21;;;;;;;9.53;4.90;;;28.40;99.90;;;;;;5031966;28;20312;-70
2021/07/24 12:34:53;;;;;;;5.57;4.27;;;28.40;99.90;;;;;;5028388;28;20726;-70
2021/07/24 12:37:29;;;;;;;7.13;5.00;;;28.30;99.90;;;;;;5032845;28;20248;-70
2021/07/24 12:40:12;;;;;;;7.83;4.63;;;27.80;99.90;;;;;;5031852;28;20236;-70
2021/07/24 12:42:41;;;;;;;8.33;5.27;;;27.50;99.90;;;;;;5031871;28;20898;-70
2021/07/24 12:45:23;;;;;;;6.90;4.83;;;27.50;99.90;;;;;;5038888;28;20334;-70
2021/07/24 12:47:52;;;;;;;6.57;5.00;;;27.70;99.90;;;;;;5033196;28;20714;-72
2021/07/24 12:50:21;;;;;;;6.13;5.53;;;27.70;99.90;;;;;;5031741;28;20723;-73
2021/07/24 12:52:50;;;;;;;5.03;4.60;;;27.60;99.90;;;;;;5028853;28;20629;-73
2021/07/24 12:55:21;;;;;;;5.37;4.87;;;27.60;99.90;;;;;;5031319;28;20365;-73
2021/07/24 12:57:50;;;;;;;5.97;5.37;;;27.80;99.90;;;;;;5035865;28;20244;-73
2021/07/24 13:00:21;;;;;;;6.50;5.10;;;27.80;99.90;;;;;;5028869;28;20337;-73
2021/07/24 13:02:49;;;;;;;5.33;4.80;;;27.60;99.90;;;;;;5041259;28;20292;-72
2021/07/24 13:05:19;;;;;;;6.77;5.50;;;27.60;99.90;;;;;;5027040;28;21224;-74
2021/07/24 13:07:51;;;;;;;7.47;5.50;;;27.60;99.90;;;;;;5039444;28;20829;-73